Time;durP1;ratioP1;P1;durP2;ratioP2;P2;SDS_P1;SDS_P2;PMS_P1;PMS_P2;Temp;Humidity;BMP_temperature;BMP_pressure;BME280_temperature;BME280_humidity;BME280_pressure;Samples;Min_cycle;Max_cycle;Signal;HPM_P1;HPM_P2
2022/07/11 00:01:56;;;;;;;1.40;1.30;;;;;;;17.55;69.93;98818.09;5061508;28;20219;-74
2022/07/11 00:04:23;;;;;;;1.47;1.37;;;;;;;17.55;69.82;98826.09;5062786;28;20278;-74
2022/07/11 00:06:50;;;;;;;2.30;1.53;;;;;;;17.51;70.01;98819.34;5064325;28;20584;-73
2022/07/11 00:09:17;;;;;;;1.50;1.40;;;;;;;17.53;70.40;98813.84;5062554;28;20220;-74
2022/07/11 00:11:43;;;;;;;1.77;1.67;;;;;;;17.46;70.61;98807.34;5061276;28;20224;-74
2022/07/11 00:14:10;;;;;;;2.57;1.83;;;;;;;17.45;70.74;98803.84;5062143;28;20255;-74
2022/07/11 00:16:36;;;;;;;1.63;1.53;;;;;;;17.43;71.13;98804.94;5064950;28;20588;-73
2022/07/11 00:19:05;;;;;;;2.00;1.53;;;;;;;17.36;71.84;98799.25;5063238;28;20235;-73
2022/07/11 00:21:33;;;;;;;1.50;1.40;;;;;;;17.31;72.04;98806.78;5061150;28;20816;-73
2022/07/11 00:24:00;;;;;;;1.47;1.10;;;;;;;17.27;72.62;98793.84;5062186;28;20216;-73
2022/07/11 00:26:26;;;;;;;1.40;1.30;;;;;;;17.20;72.83;98798.00;5064760;28;20222;-74
2022/07/11 00:28:53;;;;;;;1.60;1.50;;;;;;;17.13;73.16;98797.69;5063058;28;20305;-74
2022/07/11 00:31:20;;;;;;;1.63;1.30;;;;;;;17.08;73.87;98797.22;5061110;28;20243;-74
2022/07/11 00:33:46;;;;;;;1.23;1.10;;;;;;;17.03;74.25;98795.94;5060145;28;20216;-73
2022/07/11 00:36:13;;;;;;;1.37;1.20;;;;;;;16.97;74.96;98797.31;5064698;28;20234;-73
2022/07/11 00:38:41;;;;;;;1.70;1.23;;;;;;;16.95;74.99;98799.22;5063355;28;20212;-74
2022/07/11 00:41:08;;;;;;;2.20;1.40;;;;;;;16.98;74.89;98799.00;5061027;28;20227;-74
2022/07/11 00:43:37;;;;;;;2.40;1.50;;;;;;;16.95;74.88;98796.56;5061575;28;20303;-74
2022/07/11 00:46:04;;;;;;;1.83;1.70;;;;;;;16.91;75.22;98792.47;5064503;28;20211;-74
2022/07/11 00:48:31;;;;;;;1.60;1.50;;;;;;;16.88;75.89;98792.72;5063157;28;20302;-74
2022/07/11 00:50:58;;;;;;;1.77;1.50;;;;;;;16.91;75.62;98789.81;5060907;28;20239;-74
2022/07/11 00:53:26;;;;;;;1.67;1.50;;;;;;;16.89;76.15;98786.41;5061535;28;20211;-74
2022/07/11 00:55:55;;;;;;;1.47;1.37;;;;;;;16.89;76.61;98788.25;5064443;28;20216;-74
2022/07/11 00:58:22;;;;;;;1.50;1.40;;;;;;;16.89;76.70;98783.72;5063269;28;20218;-74
2022/07/11 01:00:49;;;;;;;1.50;1.40;;;;;;;16.91;76.96;98787.13;5059118;28;20326;-74
2022/07/11 01:03:16;;;;;;;2.33;1.70;;;;;;;16.90;77.16;98779.25;5061225;28;20589;-74
2022/07/11 01:05:43;;;;;;;1.90;1.70;;;;;;;16.90;77.09;98785.44;5064390;28;20565;-73
2022/07/11 01:08:10;;;;;;;2.17;1.40;;;;;;;16.90;77.44;98773.91;5063362;28;20211;-73
2022/07/11 01:10:37;;;;;;;2.13;1.40;;;;;;;16.87;77.53;98775.00;5061026;28;20223;-73
2022/07/11 01:13:07;;;;;;;1.90;1.70;;;;;;;16.87;77.63;98775.00;5064951;28;20241;-74
2022/07/11 01:15:35;;;;;;;2.03;1.83;;;;;;;16.88;77.80;98781.22;5067323;28;20294;-74
2022/07/11 01:18:01;;;;;;;1.53;1.40;;;;;;;16.88;77.90;98766.03;5067259;28;20212;-74
2022/07/11 01:20:28;;;;;;;1.80;1.70;;;;;;;16.90;77.93;98777.44;5064319;28;20258;-73
2022/07/11 01:22:57;;;;;;;1.73;1.63;;;;;;;16.87;78.21;98775.00;5065001;28;20208;-74
2022/07/11 01:25:31;;;;;;;2.30;1.73;;;;;;;16.88;78.36;98774.03;5066459;28;20208;-74
2022/07/11 01:27:58;;;;;;;2.43;1.67;;;;;;;16.86;78.57;98772.47;5065839;28;20211;-73
2022/07/11 01:30:25;;;;;;;2.10;1.97;;;;;;;16.89;78.46;98778.38;5064291;28;20607;-74
2022/07/11 01:32:52;;;;;;;2.20;2.00;;;;;;;16.89;78.73;98772.22;5065600;28;20656;-74
2022/07/11 01:35:19;;;;;;;2.50;1.80;;;;;;;16.87;78.53;98769.69;5064454;28;20212;-73
2022/07/11 01:37:45;;;;;;;1.90;1.80;;;;;;;16.89;78.82;98773.06;5064078;28;20207;-74
2022/07/11 01:40:12;;;;;;;1.97;1.77;;;;;;;16.87;78.80;98768.81;5063905;28;20239;-74
2022/07/11 01:42:40;;;;;;;2.00;1.80;;;;;;;16.86;78.98;98767.13;5064885;28;20212;-74
2022/07/11 01:45:08;;;;;;;1.93;1.83;;;;;;;16.87;79.35;98764.34;5067495;28;20306;-74
2022/07/11 01:47:34;;;;;;;1.90;1.80;;;;;;;16.86;78.83;98765.31;5065920;28;20246;-74
2022/07/11 01:50:01;;;;;;;1.83;1.73;;;;;;;16.85;79.33;98760.97;5063602;28;20701;-74
2022/07/11 01:52:28;;;;;;;2.03;1.60;;;;;;;16.84;79.30;98769.94;5063040;28;20223;-74
2022/07/11 01:54:54;;;;;;;2.60;2.17;;;;;;;16.83;79.53;98762.88;5067479;28;20215;-74
2022/07/11 01:57:21;;;;;;;2.10;1.90;;;;;;;16.86;79.53;98762.66;5066164;28;20215;-74
2022/07/11 01:59:49;;;;;;;2.00;1.90;;;;;;;16.86;79.59;98773.31;5063661;28;20242;-74
2022/07/11 02:02:16;;;;;;;1.90;1.80;;;;;;;16.87;79.56;98767.00;5064420;28;20216;-74
2022/07/11 02:04:43;;;;;;;2.20;2.00;;;;;;;16.87;79.35;98758.13;5067059;28;20245;-74
2022/07/11 02:07:11;;;;;;;1.90;1.70;;;;;;;16.88;79.47;98771.34;5066622;28;20218;-74
2022/07/11 02:09:37;;;;;;;1.90;1.80;;;;;;;16.89;79.46;98762.38;5063240;28;20250;-73
2022/07/11 02:12:05;;;;;;;2.23;1.90;;;;;;;16.89;79.57;98762.38;5063830;28;20223;-74
2022/07/11 02:14:31;;;;;;;2.40;2.00;;;;;;;16.87;80.01;98763.47;5066861;28;20215;-74
2022/07/11 02:17:00;;;;;;;1.97;1.80;;;;;;;16.87;79.83;98756.31;5065807;28;20238;-73
2022/07/11 02:19:27;;;;;;;1.80;1.70;;;;;;;16.89;80.03;98754.34;5062424;28;20236;-73
2022/07/11 02:21:53;;;;;;;4.10;3.70;;;;;;;16.89;79.78;98762.38;5063566;28;20235;-73
2022/07/11 02:24:20;;;;;;;2.90;2.70;;;;;;;16.93;79.78;98757.63;5066479;28;20208;-73
2022/07/11 02:26:46;;;;;;;2.83;2.30;;;;;;;16.93;79.63;98757.63;5066298;28;20215;-73
2022/07/11 02:29:13;;;;;;;3.20;1.90;;;;;;;16.91;79.78;98760.44;5063029;28;20222;-74
2022/07/11 02:31:39;;;;;;;2.00;1.90;;;;;;;16.93;79.74;98757.63;5063180;28;20238;-74
2022/07/11 02:34:07;;;;;;;2.00;1.90;;;;;;;16.94;79.96;98762.84;5051068;28;20686;-74
2022/07/11 02:36:34;;;;;;;2.23;2.03;;;;;;;16.93;80.09;98758.47;5066267;28;20218;-74
2022/07/11 02:39:00;;;;;;;2.20;2.00;;;;;;;16.94;80.17;98764.69;5063172;28;20216;-74
2022/07/11 02:41:29;;;;;;;1.93;1.83;;;;;;;16.95;80.17;98761.03;5063114;28;20246;-74
2022/07/11 02:43:55;;;;;;;1.80;1.70;;;;;;;16.97;80.31;98759.91;5049091;28;20665;-73
2022/07/11 02:46:22;;;;;;;2.17;1.97;;;;;;;16.90;80.60;98758.75;5066608;28;20225;-74
2022/07/11 02:48:48;;;;;;;2.07;1.97;;;;;;;16.90;80.83;98764.09;5054645;28;20218;-74
2022/07/11 02:51:16;;;;;;;2.93;2.20;;;;;;;16.86;80.79;98761.78;5062833;28;20216;-74
2022/07/11 02:53:43;;;;;;;2.10;2.00;;;;;;;16.84;81.04;98763.75;5065842;28;20230;-74
2022/07/11 02:56:09;;;;;;;2.50;2.20;;;;;;;16.85;81.29;98763.63;5066037;28;20216;-75
2022/07/11 02:58:36;;;;;;;2.70;2.50;;;;;;;16.80;81.27;98765.84;5062895;28;20220;-75
2022/07/11 03:01:02;;;;;;;3.00;2.70;;;;;;;16.78;81.60;98764.25;5062328;28;20243;-74
2022/07/11 03:03:29;;;;;;;2.37;2.20;;;;;;;16.79;81.63;98766.81;5065056;28;20217;-73
2022/07/11 03:05:56;;;;;;;3.03;2.00;;;;;;;16.78;81.91;98762.47;5065965;28;20222;-73
2022/07/11 03:08:24;;;;;;;3.47;2.50;;;;;;;16.77;82.02;98759.91;5063076;28;20230;-73
2022/07/11 03:10:50;;;;;;;2.60;2.20;;;;;;;16.78;82.29;98764.25;5060793;28;20219;-74
2022/07/11 03:13:17;;;;;;;2.60;2.40;;;;;;;16.75;83.02;98765.38;5064673;28;20698;-73
2022/07/11 03:15:43;;;;;;;2.60;1.87;;;;;;;16.69;83.69;98765.88;5066010;28;20211;-73
2022/07/11 03:18:10;;;;;;;2.40;2.20;;;;;;;16.65;83.76;98767.09;5063365;28;20234;-73
2022/07/11 03:20:36;;;;;;;2.20;2.00;;;;;;;16.60;83.72;98757.81;5061607;28;20248;-74
2022/07/11 03:23:03;;;;;;;2.17;2.00;;;;;;;16.57;83.76;98774.91;5063659;28;20212;-73
2022/07/11 03:25:31;;;;;;;2.97;2.10;;;;;;;16.58;83.34;98763.25;5065740;28;20302;-74
2022/07/11 03:27:58;;;;;;;2.40;2.20;;;;;;;16.59;83.17;98767.63;5063159;28;20216;-73
2022/07/11 03:30:25;;;;;;;2.40;2.20;;;;;;;16.60;83.07;98756.00;5061927;28;20222;-74
2022/07/11 03:32:51;;;;;;;2.50;2.00;;;;;;;16.64;83.30;98761.91;5063767;28;20218;-74
2022/07/11 03:38:02;;;;;;;2.43;2.23;;;;;;;16.65;82.96;98759.09;5053945;28;20218;-74
2022/07/11 03:40:29;;;;;;;2.63;2.20;;;;;;;16.64;83.05;98762.75;5061521;28;20232;-74
2022/07/11 03:42:56;;;;;;;3.37;2.30;;;;;;;16.62;83.36;98764.72;5065507;28;20302;-74
2022/07/11 03:45:23;;;;;;;3.57;2.57;;;;;;;16.68;83.13;98764.19;5065510;28;20221;-74
2022/07/11 03:47:50;;;;;;;2.47;2.27;;;;;;;16.68;83.17;98769.53;5053429;28;20222;-74
2022/07/11 03:50:16;;;;;;;2.50;2.30;;;;;;;16.69;83.36;98765.88;5061434;28;20216;-74
2022/07/11 03:52:43;;;;;;;2.40;2.20;;;;;;;16.67;83.72;98767.84;5064896;28;20216;-74
2022/07/11 03:55:10;;;;;;;2.97;2.43;;;;;;;16.75;83.64;98768.03;5065234;28;20211;-74
2022/07/11 03:57:36;;;;;;;2.77;2.50;;;;;;;16.76;83.45;98767.06;5061888;28;20299;-73
2022/07/11 04:00:07;;;;;;;3.07;2.77;;;;;;;16.76;83.63;98761.72;5061506;28;20286;-74
2022/07/11 04:02:34;;;;;;;2.60;2.40;;;;;;;16.77;84.03;98766.06;5063058;28;20212;-73
2022/07/11 04:05:00;;;;;;;4.27;2.80;;;;;;;16.79;84.13;98761.47;5064920;28;20211;-73
2022/07/11 04:07:28;;;;;;;3.70;2.73;;;;;;;16.81;84.10;98766.66;5061585;28;20212;-74
2022/07/11 04:09:54;;;;;;;3.67;2.70;;;;;;;16.80;84.86;98768.50;5061385;28;20269;-73
2022/07/11 04:12:21;;;;;;;3.43;2.70;;;;;;;16.82;85.62;98761.19;5063946;28;20215;-73
2022/07/11 04:14:48;;;;;;;2.83;2.63;;;;;;;16.87;85.34;98764.34;5064656;28;20215;-73
2022/07/11 04:17:16;;;;;;;3.03;2.63;;;;;;;16.88;85.48;98768.69;5061606;28;20281;-73
2022/07/11 04:19:42;;;;;;;2.43;2.27;;;;;;;16.96;84.87;98773.41;5061114;28;20635;-73
2022/07/11 04:22:09;;;;;;;2.60;2.40;;;;;;;17.01;84.26;98766.66;5063697;28;20781;-73
2022/07/11 04:24:36;;;;;;;2.63;2.27;;;;;;;17.03;83.89;98769.22;5064556;28;20217;-74
2022/07/11 04:27:03;;;;;;;2.90;2.60;;;;;;;17.05;83.45;98770.78;5060601;28;20212;-74
2022/07/11 04:29:29;;;;;;;4.80;2.90;;;;;;;17.08;83.44;98767.84;5060245;28;20685;-73
2022/07/11 04:31:56;;;;;;;3.03;2.63;;;;;;;17.11;83.73;98766.72;5063139;28;20326;-73
2022/07/11 04:34:24;;;;;;;2.80;2.60;;;;;;;17.12;84.67;98763.94;5064364;28;20216;-73
2022/07/11 04:36:51;;;;;;;2.60;2.40;;;;;;;17.16;85.33;98752.03;5062155;28;20298;-73
2022/07/11 04:39:17;;;;;;;2.83;2.50;;;;;;;17.24;84.91;98756.72;5060912;28;20216;-73
2022/07/11 04:41:44;;;;;;;2.67;2.47;;;;;;;17.28;84.96;98753.63;5062611;28;20235;-73
2022/07/11 04:44:10;;;;;;;2.87;2.67;;;;;;;17.34;84.50;98763.78;5064374;28;20215;-73
2022/07/11 04:46:37;;;;;;;3.00;2.70;;;;;;;17.40;84.22;98751.75;5061848;28;20234;-73
2022/07/11 04:49:03;;;;;;;3.10;2.80;;;;;;;17.47;83.78;98759.09;5060839;28;20208;-73
2022/07/11 04:51:31;;;;;;;2.90;2.70;;;;;;;17.55;83.55;98758.44;5062430;28;20211;-73
2022/07/11 04:53:58;;;;;;;2.90;2.70;;;;;;;17.60;83.65;98765.06;5062925;28;20219;-74
2022/07/11 04:56:24;;;;;;;2.57;2.37;;;;;;;17.67;82.91;98757.38;5062554;28;20211;-73
2022/07/11 04:58:51;;;;;;;2.83;2.63;;;;;;;17.75;83.00;98750.34;5060524;28;20207;-73
2022/07/11 05:01:17;;;;;;;2.93;2.63;;;;;;;17.86;82.90;98755.59;5061562;28;20704;-73
2022/07/11 05:03:45;;;;;;;2.97;2.77;;;;;;;17.95;82.30;98760.13;5064433;28;20215;-74
2022/07/11 05:06:11;;;;;;;4.27;3.33;;;;;;;18.03;81.01;98759.44;5062999;28;20572;-74
2022/07/11 05:08:39;;;;;;;4.50;2.83;;;;;;;18.06;80.29;98762.72;5060682;28;20298;-74
2022/07/11 05:11:06;;;;;;;2.77;2.57;;;;;;;18.12;80.26;98762.16;5061652;28;20219;-74
2022/07/11 05:13:33;;;;;;;3.30;3.00;;;;;;;18.17;79.54;98765.25;5067864;28;20224;-74
2022/07/11 05:15:59;;;;;;;2.93;2.73;;;;;;;18.27;79.48;98766.13;5060812;28;20217;-74
2022/07/11 05:18:26;;;;;;;2.80;2.60;;;;;;;18.32;79.13;98768.41;5060789;28;20222;-74
2022/07/11 05:20:52;;;;;;;2.83;2.63;;;;;;;18.42;78.67;98770.09;5059146;28;20250;-74
2022/07/11 05:23:19;;;;;;;3.13;2.80;;;;;;;18.48;78.25;98774.91;5063888;28;20698;-74
2022/07/11 05:25:47;;;;;;;2.87;2.63;;;;;;;18.59;78.25;98777.44;5063337;28;20219;-74
2022/07/11 05:28:13;;;;;;;2.80;2.10;;;;;;;18.68;77.60;98776.63;5060440;28;20220;-74
2022/07/11 05:30:40;;;;;;;3.77;2.80;;;;;;;18.74;75.93;98769.84;5059202;28;20237;-72
2022/07/11 05:33:06;;;;;;;3.33;3.03;;;;;;;18.68;75.42;98773.94;5061703;28;20220;-74
2022/07/11 05:35:33;;;;;;;4.33;3.37;;;;;;;18.67;74.72;98774.94;5057876;28;20212;-74
2022/07/11 05:37:59;;;;;;;3.17;2.97;;;;;;;18.72;75.38;98778.00;5060557;28;20310;-74
2022/07/11 05:40:26;;;;;;;2.90;2.60;;;;;;;18.84;75.47;98782.22;5059386;28;20243;-74
2022/07/11 05:42:54;;;;;;;2.70;2.50;;;;;;;18.96;74.96;98782.94;5054786;28;20223;-73
2022/07/11 05:45:21;;;;;;;3.83;2.90;;;;;;;19.02;73.52;98780.53;5062686;28;20318;-73
2022/07/11 05:47:47;;;;;;;2.87;2.67;;;;;;;19.08;73.14;98785.31;5049057;28;20208;-72
2022/07/11 05:50:14;;;;;;;3.47;2.80;;;;;;;19.09;73.06;98787.00;5058785;28;20243;-73
2022/07/11 05:52:40;;;;;;;3.10;2.47;;;;;;;19.16;72.96;98792.66;5061858;28;20685;-73
2022/07/11 05:55:08;;;;;;;2.53;2.33;;;;;;;19.25;73.18;98791.81;5062415;28;20665;-73
2022/07/11 05:57:34;;;;;;;2.90;2.60;;;;;;;19.35;72.97;98788.13;5059699;28;20212;-73
2022/07/11 06:00:02;;;;;;;3.20;2.90;;;;;;;19.37;71.43;98785.28;5062376;28;20219;-73
2022/07/11 06:02:29;;;;;;;3.33;3.03;;;;;;;19.27;71.57;98788.00;5065393;28;20326;-73
2022/07/11 06:04:55;;;;;;;3.47;3.20;;;;;;;19.25;71.60;98792.66;5066243;28;20222;-73
2022/07/11 06:10:06;;;;;;;2.90;2.70;;;;;;;19.22;71.03;98787.59;5063075;28;20727;-74
2022/07/11 06:12:33;;;;;;;3.00;2.80;;;;;;;19.28;71.07;98787.03;5063978;28;20208;-73
2022/07/11 06:14:59;;;;;;;3.83;3.43;;;;;;;19.29;71.39;98793.22;5062493;28;20224;-73
2022/07/11 06:17:27;;;;;;;3.30;2.90;;;;;;;19.29;71.17;98791.41;5061121;28;20582;-73
2022/07/11 06:19:54;;;;;;;3.03;2.73;;;;;;;19.28;70.85;98792.41;5062030;28;20219;-73
2022/07/11 06:22:20;;;;;;;3.10;2.80;;;;;;;19.19;70.96;98795.06;5064838;28;20248;-72
2022/07/11 06:24:47;;;;;;;3.30;2.90;;;;;;;19.23;71.01;98799.16;5063165;28;20213;-75
2022/07/11 06:27:13;;;;;;;4.13;3.30;;;;;;;19.32;71.00;98796.44;5060792;28;20676;-73
2022/07/11 06:29:40;;;;;;;3.43;2.97;;;;;;;19.29;71.72;98786.03;5060957;28;20219;-73
2022/07/11 06:32:08;;;;;;;3.33;3.03;;;;;;;19.41;72.30;98787.56;5064562;28;20220;-74
2022/07/11 06:34:36;;;;;;;3.73;3.30;;;;;;;19.58;70.33;98789.47;5063251;28;20226;-73
2022/07/11 06:37:03;;;;;;;2.80;2.60;;;;;;;19.77;70.15;98792.09;5060753;28;20291;-73
2022/07/11 06:39:30;;;;;;;3.70;2.70;;;;;;;20.04;70.16;98785.88;5059283;28;20219;-74
2022/07/11 06:41:56;;;;;;;4.30;3.30;;;;;;;20.15;68.99;98791.09;5064431;28;20243;-74
2022/07/11 06:44:23;;;;;;;3.43;3.13;;;;;;;20.30;68.10;98785.06;5063503;28;20224;-73
2022/07/11 06:46:49;;;;;;;3.20;2.90;;;;;;;20.48;67.43;98785.94;5061511;28;20214;-74
2022/07/11 06:49:16;;;;;;;2.63;2.43;;;;;;;20.57;66.63;98790.41;5061509;28;20212;-74
2022/07/11 06:51:44;;;;;;;2.90;2.67;;;;;;;20.77;66.48;98791.06;5065160;28;20222;-75
2022/07/11 06:54:10;;;;;;;2.97;2.67;;;;;;;20.99;65.72;98788.81;5064926;28;20222;-74
2022/07/11 06:56:37;;;;;;;3.23;2.93;;;;;;;21.21;64.09;98791.00;5061408;28;20222;-74
2022/07/11 06:59:03;;;;;;;3.20;2.90;;;;;;;21.42;63.78;98787.97;5061387;28;20216;-74
2022/07/11 07:01:30;;;;;;;2.80;2.60;;;;;;;21.64;63.68;98782.88;5064464;28;20231;-74
2022/07/11 07:03:56;;;;;;;2.67;2.47;;;;;;;21.94;63.46;98789.66;5065013;28;20657;-73
2022/07/11 07:06:23;;;;;;;3.43;2.80;;;;;;;22.20;61.12;98780.50;5059857;28;20216;-74
2022/07/11 07:08:51;;;;;;;2.90;2.70;;;;;;;22.31;59.00;98782.91;5060918;28;20214;-74
2022/07/11 07:11:18;;;;;;;2.73;2.53;;;;;;;22.51;59.26;98778.09;5063927;28;20211;-74
2022/07/11 07:13:45;;;;;;;2.50;2.27;;;;;;;22.79;58.89;98788.44;5064876;28;20215;-73
2022/07/11 07:16:12;;;;;;;2.70;2.50;;;;;;;22.99;56.63;98780.88;5062036;28;20251;-74
2022/07/11 07:18:41;;;;;;;2.60;2.40;;;;;;;23.26;55.83;98786.81;5061250;28;20215;-73
2022/07/11 07:21:08;;;;;;;2.53;2.10;;;;;;;23.64;55.71;98780.66;5063666;28;20254;-73
2022/07/11 07:23:34;;;;;;;2.97;2.67;;;;;;;24.01;53.95;98788.22;5064892;28;20218;-74
2022/07/11 07:26:02;;;;;;;2.83;2.40;;;;;;;23.99;53.10;98787.50;5061888;28;20220;-74
2022/07/11 07:28:30;;;;;;;3.13;2.50;;;;;;;23.88;52.90;98785.19;5060614;28;20581;-74
2022/07/11 07:30:57;;;;;;;2.70;2.20;;;;;;;23.84;52.53;98786.53;5055859;28;20226;-73
2022/07/11 07:33:24;;;;;;;2.37;2.17;;;;;;;23.76;52.66;98789.22;5062169;28;20214;-73
2022/07/11 07:35:50;;;;;;;1.97;1.77;;;;;;;23.70;53.37;98785.38;5056799;28;20580;-74
2022/07/11 07:38:17;;;;;;;3.37;2.10;;;;;;;23.71;53.47;98783.53;5060521;28;20221;-74
2022/07/11 07:40:43;;;;;;;2.00;1.90;;;;;;;23.84;53.39;98790.06;5062846;28;20598;-73
2022/07/11 07:43:12;;;;;;;2.40;2.20;;;;;;;24.07;53.10;98788.34;5064199;28;20220;-73
2022/07/11 07:45:38;;;;;;;2.50;2.30;;;;;;;24.17;51.45;98786.28;5061620;28;20219;-73
2022/07/11 07:48:05;;;;;;;2.80;2.20;;;;;;;24.31;51.25;98787.41;5060568;28;20583;-74
2022/07/11 07:50:32;;;;;;;2.17;1.97;;;;;;;24.51;51.16;98786.75;5062296;28;20215;-74
2022/07/11 07:52:59;;;;;;;2.17;1.97;;;;;;;24.57;51.24;98780.69;5063997;28;20221;-73
2022/07/11 07:55:26;;;;;;;2.10;2.00;;;;;;;24.39;49.67;98777.38;5061595;28;20211;-73
2022/07/11 07:57:52;;;;;;;2.10;1.90;;;;;;;23.85;51.05;98778.28;5058518;28;20594;-73
2022/07/11 08:03:05;;;;;;;2.00;1.77;;;;;;;23.57;52.90;98778.81;5063232;28;20285;-73
2022/07/11 08:05:32;;;;;;;1.93;1.80;;;;;;;23.51;51.88;98766.88;5059906;28;20208;-73
2022/07/11 08:07:59;;;;;;;1.60;1.50;;;;;;;23.39;52.65;98768.25;5059867;28;20315;-74
2022/07/11 08:10:25;;;;;;;2.30;1.60;;;;;;;23.55;51.99;98776.31;5048202;28;20247;-74
2022/07/11 08:12:52;;;;;;;1.93;1.53;;;;;;;23.75;51.51;98774.91;5063325;28;20217;-73
2022/07/11 08:15:18;;;;;;;1.83;1.73;;;;;;;23.87;51.13;98781.66;5050348;28;20214;-73
2022/07/11 08:17:46;;;;;;;1.93;1.83;;;;;;;23.86;49.70;98774.56;5059291;28;20699;-74
2022/07/11 08:20:13;;;;;;;1.67;1.57;;;;;;;23.56;50.83;98772.59;5062556;28;20211;-74
2022/07/11 08:22:40;;;;;;;1.67;1.57;;;;;;;23.11;51.53;98777.66;5063292;28;20242;-74
2022/07/11 08:25:07;;;;;;;1.60;1.50;;;;;;;22.77;53.28;98778.81;5058388;28;20226;-74
2022/07/11 08:27:35;;;;;;;1.50;1.40;;;;;;;22.68;53.71;98786.03;5059862;28;20216;-73
2022/07/11 08:30:03;;;;;;;1.57;1.47;;;;;;;22.63;53.45;98785.72;5062660;28;20211;-74
2022/07/11 08:32:29;;;;;;;1.70;1.60;;;;;;;22.54;53.51;98778.63;5063171;28;20721;-74
2022/07/11 08:34:57;;;;;;;1.67;1.57;;;;;;;22.51;53.72;98784.34;5059957;28;20223;-74
2022/07/11 08:37:24;;;;;;;1.37;1.27;;;;;;;22.57;53.77;98775.59;5054167;28;20294;-74
2022/07/11 08:39:50;;;;;;;1.60;1.50;;;;;;;22.66;54.44;98765.66;5062437;28;20222;-74
2022/07/11 08:42:20;;;;;;;1.43;1.33;;;;;;;22.63;54.25;98766.88;5062899;28;20718;-74
2022/07/11 08:44:47;;;;;;;1.80;1.30;;;;;;;22.54;53.60;98766.97;5053566;28;20658;-74
2022/07/11 08:47:14;;;;;;;1.37;1.27;;;;;;;22.53;53.27;98759.91;5058246;28;20215;-73
2022/07/11 08:49:42;;;;;;;1.70;1.40;;;;;;;22.42;53.56;98761.03;5060906;28;20215;-74
2022/07/11 08:52:12;;;;;;;1.37;1.27;;;;;;;22.21;55.56;98763.34;5062217;28;20549;-74
2022/07/11 08:54:38;;;;;;;1.87;1.20;;;;;;;22.12;55.66;98755.41;5049538;28;20220;-74
2022/07/11 08:57:06;;;;;;;1.20;1.10;;;;;;;22.11;56.10;98759.94;5057951;28;20267;-73
2022/07/11 08:59:36;;;;;;;1.30;1.20;;;;;;;22.26;54.96;98755.59;5061653;28;20223;-74
2022/07/11 09:02:05;;;;;;;1.30;1.20;;;;;;;22.48;53.87;98763.13;5060467;28;20237;-74
2022/07/11 09:04:33;;;;;;;1.50;1.40;;;;;;;22.69;52.93;98755.41;5057890;28;20211;-74
2022/07/11 09:07:00;;;;;;;1.30;1.20;;;;;;;22.81;52.66;98753.22;5058066;28;20216;-74
2022/07/11 09:09:29;;;;;;;1.57;1.47;;;;;;;23.05;53.69;98758.63;5061517;28;20687;-72
2022/07/11 09:11:57;;;;;;;3.67;1.77;;;;;;;23.30;53.28;98755.78;5059985;28;20616;-73
2022/07/11 09:14:24;;;;;;;1.47;1.37;;;;;;;23.53;53.13;98750.50;5057982;28;20216;-75
2022/07/11 09:16:56;;;;;;;2.70;1.67;;;;;;;23.81;52.62;98754.47;5058926;28;20243;-74
2022/07/11 09:19:24;;;;;;;1.90;1.70;;;;;;;23.79;51.26;98757.38;5062243;28;20218;-74
2022/07/11 09:27:44;;;;;;;1.80;1.50;;;;;;;24.14;49.70;98751.50;5061912;28;20222;-72
2022/07/11 09:30:22;;;;;;;1.30;1.20;;;;;;;24.11;49.58;98757.25;5059096;28;20218;-73
2022/07/11 09:32:54;;;;;;;1.67;1.57;;;;;;;24.13;51.55;98760.63;5063160;28;20673;-73
2022/07/11 09:35:20;;;;;;;1.83;1.73;;;;;;;24.04;48.84;98753.59;5063436;28;20279;-73
2022/07/11 09:37:48;;;;;;;1.93;1.50;;;;;;;23.99;49.39;98757.81;5062705;28;20222;-73
2022/07/11 09:40:17;;;;;;;1.40;1.30;;;;;;;24.25;48.72;98756.50;5062759;28;20220;-75
2022/07/11 09:42:48;;;;;;;1.40;1.20;;;;;;;24.72;48.66;98760.00;5064897;28;20734;-75
2022/07/11 09:45:15;;;;;;;1.40;1.30;;;;;;;24.82;47.82;98763.28;5064700;28;20223;-74
2022/07/11 09:47:46;;;;;;;1.33;1.23;;;;;;;24.58;47.39;98766.16;5062717;28;20634;-74
2022/07/11 09:50:13;;;;;;;1.97;1.40;;;;;;;24.68;48.69;98765.94;5062468;28;20212;-74
2022/07/11 09:52:43;;;;;;;1.40;1.30;;;;;;;24.82;47.85;98763.28;5066077;28;20226;-75
2022/07/11 09:55:09;;;;;;;1.30;1.20;;;;;;;25.04;47.01;98762.44;5065968;28;20213;-74
2022/07/11 09:57:40;;;;;;;1.13;1.07;;;;;;;25.05;45.74;98763.28;5062224;28;20274;-74
2022/07/11 10:00:09;;;;;;;1.27;1.17;;;;;;;25.06;46.16;98770.38;5058688;28;20223;-73
2022/07/11 10:02:36;;;;;;;1.33;1.00;;;;;;;24.89;46.61;98756.16;5062603;28;20717;-74
2022/07/11 10:05:04;;;;;;;1.10;1.10;;;;;;;24.74;46.96;98760.63;5056401;28;20564;-74
2022/07/11 10:07:31;;;;;;;1.20;1.10;;;;;;;24.75;46.66;98756.09;5056472;28;20211;-76
2022/07/11 10:09:58;;;;;;;1.20;1.10;;;;;;;25.11;45.70;98760.69;5054603;28;20219;-74
2022/07/11 10:12:26;;;;;;;1.27;1.20;;;;;;;25.40;44.65;98757.25;5057407;28;20218;-74
2022/07/11 10:14:56;;;;;;;1.63;1.43;;;;;;;25.51;43.85;98757.66;5056054;28;20212;-74
2022/07/11 10:17:32;;;;;;;1.27;1.17;;;;;;;25.56;44.12;98755.22;5055825;28;20892;-74
2022/07/11 10:20:03;;;;;;;1.20;1.00;;;;;;;25.60;43.54;98761.94;5057651;28;20586;-74
2022/07/11 10:22:36;;;;;;;1.10;1.00;;;;;;;25.67;43.49;98765.59;5054820;28;20239;-74
2022/07/11 10:25:13;;;;;;;1.40;1.03;;;;;;;25.79;43.48;98763.28;5062224;28;20216;-74
2022/07/11 10:27:49;;;;;;;0.90;0.90;;;;;;;25.99;44.18;98759.00;5062199;28;20646;-74
2022/07/11 10:30:49;;;;;;;1.37;1.27;;;;;;;26.21;44.41;98755.34;5065587;28;20225;-75
2022/07/11 10:33:17;;;;;;;1.17;1.10;;;;;;;26.26;43.49;98759.16;5055681;28;20216;-74
2022/07/11 10:35:44;;;;;;;1.20;1.10;;;;;;;26.38;43.09;98760.34;5063578;28;20208;-74
2022/07/11 10:38:11;;;;;;;1.30;1.20;;;;;;;26.53;42.81;98755.75;5064074;28;20215;-75
2022/07/11 10:40:46;;;;;;;2.03;1.23;;;;;;;26.58;43.29;98756.03;5063203;28;20220;-75
2022/07/11 10:43:14;;;;;;;1.30;1.20;;;;;;;26.53;43.52;98760.31;5060126;28;20243;-73
2022/07/11 10:45:56;;;;;;;1.40;1.30;;;;;;;26.34;43.80;98758.22;5063994;28;20681;-74
2022/07/11 10:48:23;;;;;;;1.70;1.27;;;;;;;26.25;42.92;98754.78;5064359;28;20222;-74
2022/07/11 10:51:01;;;;;;;1.30;1.20;;;;;;;25.70;43.07;98757.09;5061760;28;20309;-74
2022/07/11 10:53:32;;;;;;;1.37;1.10;;;;;;;25.47;43.92;98760.91;5063552;28;20715;-75
2022/07/11 10:56:06;;;;;;;1.27;1.17;;;;;;;25.52;42.84;98753.91;5065325;28;20207;-74
2022/07/11 10:58:33;;;;;;;1.50;1.40;;;;;;;25.63;43.66;98756.16;5052775;28;20673;-74
2022/07/11 11:01:19;;;;;;;1.10;1.10;;;;;;;25.38;43.75;98756.59;5060662;28;20216;-73
2022/07/11 11:03:46;;;;;;;1.17;1.13;;;;;;;25.32;44.24;98755.47;5052428;28;20246;-74
2022/07/11 11:06:13;;;;;;;1.20;1.10;;;;;;;25.42;43.20;98756.03;5062167;28;20276;-73
2022/07/11 11:08:44;;;;;;;1.37;1.10;;;;;;;25.27;43.39;98759.72;5060928;28;20218;-74
2022/07/11 11:11:38;;;;;;;1.30;1.20;;;;;;;25.33;44.50;98757.16;5063407;28;20215;-73
2022/07/11 11:14:18;;;;;;;1.00;1.00;;;;;;;25.46;43.83;98759.22;5060237;28;20223;-73
2022/07/11 11:16:46;;;;;;;1.50;1.30;;;;;;;25.59;45.10;98760.25;5060633;28;20255;-73
2022/07/11 11:19:46;;;;;;;1.50;1.20;;;;;;;25.55;44.97;98750.81;5052873;28;20306;-73
2022/07/11 11:22:14;;;;;;;1.30;1.20;;;;;;;25.35;45.64;98749.69;5052876;28;20674;-73
2022/07/11 11:24:42;;;;;;;1.93;1.30;;;;;;;25.09;46.94;98748.38;5060952;28;20246;-73
2022/07/11 11:27:17;;;;;;;1.57;1.47;;;;;;;24.83;47.08;98747.91;5064150;28;20221;-74
2022/07/11 11:29:44;;;;;;;1.40;1.30;;;;;;;24.96;46.13;98749.00;5061398;28;20207;-74
2022/07/11 11:32:12;;;;;;;1.50;1.40;;;;;;;25.16;46.70;98742.03;5060561;28;20212;-73
2022/07/11 11:34:40;;;;;;;1.40;1.30;;;;;;;25.24;45.08;98728.47;5061962;28;20212;-74
2022/07/11 11:37:07;;;;;;;1.73;1.40;;;;;;;25.42;45.37;98728.16;5060309;28;20207;-74
2022/07/11 11:39:35;;;;;;;2.37;1.30;;;;;;;25.74;46.01;98738.63;5062722;28;20340;-74
2022/07/11 11:42:04;;;;;;;1.30;1.20;;;;;;;25.99;43.62;98731.91;5060564;28;20218;-74
2022/07/11 11:44:31;;;;;;;1.53;1.43;;;;;;;25.74;43.39;98733.19;5062087;28;20216;-74
2022/07/11 11:46:57;;;;;;;1.40;1.30;;;;;;;25.69;44.03;98732.91;5064084;28;20657;-74
2022/07/11 11:49:25;;;;;;;1.47;1.37;;;;;;;25.25;45.00;98735.59;5062559;28;20247;-74
2022/07/11 11:51:55;;;;;;;1.70;1.60;;;;;;;25.21;46.04;98731.53;5060512;28;20223;-74